sensor_id;sensor_type;location;lat;lon;timestamp;temperature;humidity
84141;DHT22;74257;52.540;13.416;2024-01-30T00:02:11;22.20;37.00
84141;DHT22;74257;52.540;13.416;2024-01-30T00:04:38;22.20;37.00
84141;DHT22;74257;52.540;13.416;2024-01-30T00:07:03;22.20;37.00
84141;DHT22;74257;52.540;13.416;2024-01-30T00:09:29;22.20;36.90
84141;DHT22;74257;52.540;13.416;2024-01-30T00:11:56;22.10;36.90
84141;DHT22;74257;52.540;13.416;2024-01-30T00:14:22;22.10;36.90
84141;DHT22;74257;52.540;13.416;2024-01-30T00:16:48;22.10;36.90
84141;DHT22;74257;52.540;13.416;2024-01-30T00:19:14;22.10;36.90
84141;DHT22;74257;52.540;13.416;2024-01-30T00:21:40;22.10;36.80
84141;DHT22;74257;52.540;13.416;2024-01-30T00:24:07;22.10;36.90
84141;DHT22;74257;52.540;13.416;2024-01-30T00:26:32;22.10;36.80
84141;DHT22;74257;52.540;13.416;2024-01-30T00:28:58;22.10;36.80
84141;DHT22;74257;52.540;13.416;2024-01-30T00:31:24;22.10;36.80
84141;DHT22;74257;52.540;13.416;2024-01-30T00:33:50;22.10;36.80
84141;DHT22;74257;52.540;13.416;2024-01-30T00:36:16;22.00;36.80
84141;DHT22;74257;52.540;13.416;2024-01-30T00:38:42;22.00;36.80
84141;DHT22;74257;52.540;13.416;2024-01-30T00:41:08;22.00;36.90
84141;DHT22;74257;52.540;13.416;2024-01-30T00:43:35;22.00;36.90
84141;DHT22;74257;52.540;13.416;2024-01-30T00:46:01;22.00;36.90
84141;DHT22;74257;52.540;13.416;2024-01-30T00:48:27;22.00;37.00
84141;DHT22;74257;52.540;13.416;2024-01-30T00:50:53;22.00;37.00
84141;DHT22;74257;52.540;13.416;2024-01-30T00:53:19;22.00;36.90
84141;DHT22;74257;52.540;13.416;2024-01-30T00:55:44;22.00;36.90
84141;DHT22;74257;52.540;13.416;2024-01-30T00:58:10;22.00;36.90
84141;DHT22;74257;52.540;13.416;2024-01-30T01:00:36;21.90;37.00
84141;DHT22;74257;52.540;13.416;2024-01-30T01:03:03;21.90;36.90
84141;DHT22;74257;52.540;13.416;2024-01-30T01:05:28;21.90;37.00
84141;DHT22;74257;52.540;13.416;2024-01-30T01:07:55;21.90;36.90
84141;DHT22;74257;52.540;13.416;2024-01-30T01:10:20;21.90;36.90
84141;DHT22;74257;52.540;13.416;2024-01-30T01:12:48;21.90;36.90
84141;DHT22;74257;52.540;13.416;2024-01-30T01:15:14;21.90;36.90
84141;DHT22;74257;52.540;13.416;2024-01-30T01:17:40;21.90;36.90
84141;DHT22;74257;52.540;13.416;2024-01-30T01:20:06;21.90;36.80
84141;DHT22;74257;52.540;13.416;2024-01-30T01:22:33;21.90;36.90
84141;DHT22;74257;52.540;13.416;2024-01-30T01:25:00;21.90;36.80
84141;DHT22;74257;52.540;13.416;2024-01-30T01:27:26;21.90;36.70
84141;DHT22;74257;52.540;13.416;2024-01-30T01:29:52;21.90;36.70
84141;DHT22;74257;52.540;13.416;2024-01-30T01:32:19;21.90;36.70
84141;DHT22;74257;52.540;13.416;2024-01-30T01:34:44;21.90;36.60
84141;DHT22;74257;52.540;13.416;2024-01-30T01:37:11;21.90;36.70
84141;DHT22;74257;52.540;13.416;2024-01-30T01:39:36;21.80;36.70
84141;DHT22;74257;52.540;13.416;2024-01-30T01:42:02;21.80;36.60
84141;DHT22;74257;52.540;13.416;2024-01-30T01:44:28;21.80;36.60
84141;DHT22;74257;52.540;13.416;2024-01-30T01:46:55;21.70;36.60
84141;DHT22;74257;52.540;13.416;2024-01-30T01:49:24;21.80;36.70
84141;DHT22;74257;52.540;13.416;2024-01-30T01:51:52;21.80;36.70
84141;DHT22;74257;52.540;13.416;2024-01-30T01:54:19;21.70;36.70
84141;DHT22;74257;52.540;13.416;2024-01-30T01:56:45;21.70;36.70
84141;DHT22;74257;52.540;13.416;2024-01-30T01:59:11;21.70;36.70
84141;DHT22;74257;52.540;13.416;2024-01-30T02:01:37;21.70;36.70
84141;DHT22;74257;52.540;13.416;2024-01-30T02:04:03;21.70;36.70
84141;DHT22;74257;52.540;13.416;2024-01-30T02:06:30;21.70;36.60
84141;DHT22;74257;52.540;13.416;2024-01-30T02:08:56;21.70;36.60
84141;DHT22;74257;52.540;13.416;2024-01-30T02:11:22;21.70;36.60
84141;DHT22;74257;52.540;13.416;2024-01-30T02:13:49;21.70;36.70
84141;DHT22;74257;52.540;13.416;2024-01-30T02:16:15;21.70;36.70
84141;DHT22;74257;52.540;13.416;2024-01-30T02:18:41;21.70;36.70
84141;DHT22;74257;52.540;13.416;2024-01-30T02:21:15;21.70;36.60
84141;DHT22;74257;52.540;13.416;2024-01-30T02:23:42;21.70;36.60
84141;DHT22;74257;52.540;13.416;2024-01-30T02:26:09;21.70;36.60
84141;DHT22;74257;52.540;13.416;2024-01-30T02:28:34;21.70;36.60
84141;DHT22;74257;52.540;13.416;2024-01-30T02:31:01;21.70;36.60
84141;DHT22;74257;52.540;13.416;2024-01-30T02:33:26;21.70;36.60
84141;DHT22;74257;52.540;13.416;2024-01-30T02:35:52;21.60;36.60
84141;DHT22;74257;52.540;13.416;2024-01-30T02:38:18;21.60;36.60
84141;DHT22;74257;52.540;13.416;2024-01-30T02:40:44;21.60;36.50
84141;DHT22;74257;52.540;13.416;2024-01-30T02:43:10;21.60;36.50
84141;DHT22;74257;52.540;13.416;2024-01-30T02:45:36;21.60;36.50
84141;DHT22;74257;52.540;13.416;2024-01-30T02:48:02;21.60;36.50
84141;DHT22;74257;52.540;13.416;2024-01-30T02:50:28;21.50;36.50
84141;DHT22;74257;52.540;13.416;2024-01-30T02:52:53;21.50;36.50
84141;DHT22;74257;52.540;13.416;2024-01-30T02:55:19;21.50;36.50
84141;DHT22;74257;52.540;13.416;2024-01-30T02:57:45;21.50;36.50
84141;DHT22;74257;52.540;13.416;2024-01-30T03:00:11;21.50;36.50
84141;DHT22;74257;52.540;13.416;2024-01-30T03:02:37;21.50;36.50
84141;DHT22;74257;52.540;13.416;2024-01-30T03:05:05;21.50;36.40
84141;DHT22;74257;52.540;13.416;2024-01-30T03:07:31;21.50;36.40
84141;DHT22;74257;52.540;13.416;2024-01-30T03:09:57;21.50;36.40
84141;DHT22;74257;52.540;13.416;2024-01-30T03:12:22;21.50;36.40
84141;DHT22;74257;52.540;13.416;2024-01-30T03:14:48;21.50;36.30
84141;DHT22;74257;52.540;13.416;2024-01-30T03:17:15;21.50;36.40
84141;DHT22;74257;52.540;13.416;2024-01-30T03:19:41;21.50;36.30
84141;DHT22;74257;52.540;13.416;2024-01-30T03:22:07;21.50;36.30
84141;DHT22;74257;52.540;13.416;2024-01-30T03:24:33;21.50;36.30
84141;DHT22;74257;52.540;13.416;2024-01-30T03:26:58;21.50;36.30
84141;DHT22;74257;52.540;13.416;2024-01-30T03:29:24;21.50;36.30
84141;DHT22;74257;52.540;13.416;2024-01-30T03:31:50;21.50;36.30
84141;DHT22;74257;52.540;13.416;2024-01-30T03:34:16;21.50;36.30
84141;DHT22;74257;52.540;13.416;2024-01-30T03:36:42;21.40;36.30
84141;DHT22;74257;52.540;13.416;2024-01-30T03:39:08;21.40;36.40
84141;DHT22;74257;52.540;13.416;2024-01-30T03:41:34;21.40;36.40
84141;DHT22;74257;52.540;13.416;2024-01-30T03:44:00;21.40;36.40
84141;DHT22;74257;52.540;13.416;2024-01-30T03:46:25;21.40;36.40
84141;DHT22;74257;52.540;13.416;2024-01-30T03:48:51;21.40;36.50
84141;DHT22;74257;52.540;13.416;2024-01-30T03:51:17;21.40;36.40
84141;DHT22;74257;52.540;13.416;2024-01-30T03:53:43;21.40;36.40
84141;DHT22;74257;52.540;13.416;2024-01-30T03:56:09;21.40;36.50
84141;DHT22;74257;52.540;13.416;2024-01-30T03:58:35;21.40;36.40
84141;DHT22;74257;52.540;13.416;2024-01-30T04:01:01;21.40;36.40
84141;DHT22;74257;52.540;13.416;2024-01-30T04:03:28;21.40;36.40
84141;DHT22;74257;52.540;13.416;2024-01-30T04:05:54;21.40;36.40
84141;DHT22;74257;52.540;13.416;2024-01-30T04:08:20;21.40;36.40
84141;DHT22;74257;52.540;13.416;2024-01-30T04:10:46;21.40;36.40
84141;DHT22;74257;52.540;13.416;2024-01-30T04:13:13;21.30;36.40
84141;DHT22;74257;52.540;13.416;2024-01-30T04:15:39;21.30;36.40
84141;DHT22;74257;52.540;13.416;2024-01-30T04:18:05;21.30;36.40
84141;DHT22;74257;52.540;13.416;2024-01-30T04:20:31;21.30;36.40
84141;DHT22;74257;52.540;13.416;2024-01-30T04:22:57;21.30;36.40
84141;DHT22;74257;52.540;13.416;2024-01-30T04:25:23;21.30;36.40
84141;DHT22;74257;52.540;13.416;2024-01-30T04:27:49;21.30;36.40
84141;DHT22;74257;52.540;13.416;2024-01-30T04:30:15;21.30;36.40
84141;DHT22;74257;52.540;13.416;2024-01-30T04:32:41;21.30;36.40
84141;DHT22;74257;52.540;13.416;2024-01-30T04:35:07;21.30;36.30
84141;DHT22;74257;52.540;13.416;2024-01-30T04:37:33;21.30;36.40
84141;DHT22;74257;52.540;13.416;2024-01-30T04:39:59;21.30;36.30
84141;DHT22;74257;52.540;13.416;2024-01-30T04:42:25;21.20;36.30
84141;DHT22;74257;52.540;13.416;2024-01-30T04:44:50;21.20;36.30
84141;DHT22;74257;52.540;13.416;2024-01-30T04:47:17;21.20;36.30
84141;DHT22;74257;52.540;13.416;2024-01-30T04:49:42;21.20;36.30
84141;DHT22;74257;52.540;13.416;2024-01-30T04:52:09;21.20;36.30
84141;DHT22;74257;52.540;13.416;2024-01-30T04:54:35;21.20;36.30
84141;DHT22;74257;52.540;13.416;2024-01-30T04:57:02;21.20;36.30
84141;DHT22;74257;52.540;13.416;2024-01-30T04:59:28;21.10;36.20
84141;DHT22;74257;52.540;13.416;2024-01-30T05:01:54;21.10;36.30
84141;DHT22;74257;52.540;13.416;2024-01-30T05:04:20;21.10;36.20
84141;DHT22;74257;52.540;13.416;2024-01-30T05:06:46;21.10;36.20
84141;DHT22;74257;52.540;13.416;2024-01-30T05:09:12;21.10;36.20
84141;DHT22;74257;52.540;13.416;2024-01-30T05:11:38;21.10;36.30
84141;DHT22;74257;52.540;13.416;2024-01-30T05:14:05;21.10;36.20
84141;DHT22;74257;52.540;13.416;2024-01-30T05:16:32;21.10;36.20
84141;DHT22;74257;52.540;13.416;2024-01-30T05:18:58;21.10;36.20
84141;DHT22;74257;52.540;13.416;2024-01-30T05:21:24;21.10;36.20
84141;DHT22;74257;52.540;13.416;2024-01-30T05:23:49;21.10;36.20
84141;DHT22;74257;52.540;13.416;2024-01-30T05:26:15;21.10;36.20
84141;DHT22;74257;52.540;13.416;2024-01-30T05:28:41;21.10;36.20
84141;DHT22;74257;52.540;13.416;2024-01-30T05:31:08;21.10;36.20
84141;DHT22;74257;52.540;13.416;2024-01-30T05:33:33;21.10;36.10
84141;DHT22;74257;52.540;13.416;2024-01-30T05:35:59;21.10;36.20
84141;DHT22;74257;52.540;13.416;2024-01-30T05:38:25;21.10;36.20
84141;DHT22;74257;52.540;13.416;2024-01-30T05:40:51;21.10;36.20
84141;DHT22;74257;52.540;13.416;2024-01-30T05:43:17;21.10;36.20
84141;DHT22;74257;52.540;13.416;2024-01-30T05:45:43;21.10;36.20
84141;DHT22;74257;52.540;13.416;2024-01-30T05:48:08;21.10;36.10
84141;DHT22;74257;52.540;13.416;2024-01-30T05:50:35;21.10;36.20
84141;DHT22;74257;52.540;13.416;2024-01-30T05:53:00;21.20;36.20
84141;DHT22;74257;52.540;13.416;2024-01-30T05:55:26;21.30;36.30
84141;DHT22;74257;52.540;13.416;2024-01-30T05:57:52;21.30;36.20
84141;DHT22;74257;52.540;13.416;2024-01-30T06:00:18;21.40;36.30
84141;DHT22;74257;52.540;13.416;2024-01-30T06:02:44;21.50;36.20
84141;DHT22;74257;52.540;13.416;2024-01-30T06:05:10;21.50;36.30
84141;DHT22;74257;52.540;13.416;2024-01-30T06:07:36;21.50;36.30
84141;DHT22;74257;52.540;13.416;2024-01-30T06:10:02;21.70;36.30
84141;DHT22;74257;52.540;13.416;2024-01-30T06:12:28;21.70;36.40
84141;DHT22;74257;52.540;13.416;2024-01-30T06:14:54;21.70;36.50
84141;DHT22;74257;52.540;13.416;2024-01-30T06:17:25;21.80;36.70
84141;DHT22;74257;52.540;13.416;2024-01-30T06:19:51;21.90;36.80
84141;DHT22;74257;52.540;13.416;2024-01-30T06:22:16;21.90;37.00
84141;DHT22;74257;52.540;13.416;2024-01-30T06:24:43;21.90;37.10
84141;DHT22;74257;52.540;13.416;2024-01-30T06:27:10;21.90;37.20
84141;DHT22;74257;52.540;13.416;2024-01-30T06:29:36;22.00;37.30
84141;DHT22;74257;52.540;13.416;2024-01-30T06:32:02;22.00;37.40
84141;DHT22;74257;52.540;13.416;2024-01-30T06:34:29;22.00;37.50
84141;DHT22;74257;52.540;13.416;2024-01-30T06:36:55;22.10;37.50
84141;DHT22;74257;52.540;13.416;2024-01-30T06:39:21;22.10;37.60
84141;DHT22;74257;52.540;13.416;2024-01-30T06:41:47;22.10;37.70
84141;DHT22;74257;52.540;13.416;2024-01-30T06:44:12;22.20;37.70
84141;DHT22;74257;52.540;13.416;2024-01-30T06:46:38;22.20;37.80
84141;DHT22;74257;52.540;13.416;2024-01-30T06:49:05;22.20;37.70
84141;DHT22;74257;52.540;13.416;2024-01-30T06:51:31;22.20;37.70
84141;DHT22;74257;52.540;13.416;2024-01-30T06:53:57;22.20;37.60
84141;DHT22;74257;52.540;13.416;2024-01-30T06:56:22;22.20;37.60
84141;DHT22;74257;52.540;13.416;2024-01-30T06:58:49;22.30;37.50
84141;DHT22;74257;52.540;13.416;2024-01-30T07:01:15;22.30;37.40
84141;DHT22;74257;52.540;13.416;2024-01-30T07:03:41;22.30;37.40
84141;DHT22;74257;52.540;13.416;2024-01-30T07:06:08;22.30;37.30
84141;DHT22;74257;52.540;13.416;2024-01-30T07:08:34;22.30;37.30
84141;DHT22;74257;52.540;13.416;2024-01-30T07:11:00;22.30;37.40
84141;DHT22;74257;52.540;13.416;2024-01-30T07:13:25;22.30;37.40
84141;DHT22;74257;52.540;13.416;2024-01-30T07:15:51;22.40;37.50
84141;DHT22;74257;52.540;13.416;2024-01-30T07:18:17;22.40;37.40
84141;DHT22;74257;52.540;13.416;2024-01-30T07:20:43;22.40;37.40
84141;DHT22;74257;52.540;13.416;2024-01-30T07:23:12;22.40;37.40
84141;DHT22;74257;52.540;13.416;2024-01-30T07:25:43;22.40;37.50
84141;DHT22;74257;52.540;13.416;2024-01-30T07:28:09;22.40;37.50
84141;DHT22;74257;52.540;13.416;2024-01-30T07:30:36;22.50;37.40
84141;DHT22;74257;52.540;13.416;2024-01-30T07:33:02;22.50;37.50
84141;DHT22;74257;52.540;13.416;2024-01-30T07:35:28;22.50;37.50
84141;DHT22;74257;52.540;13.416;2024-01-30T07:37:54;22.50;37.50
84141;DHT22;74257;52.540;13.416;2024-01-30T07:40:20;22.50;37.50
84141;DHT22;74257;52.540;13.416;2024-01-30T07:42:47;22.50;37.50
84141;DHT22;74257;52.540;13.416;2024-01-30T07:45:13;22.50;37.50
84141;DHT22;74257;52.540;13.416;2024-01-30T07:47:39;22.50;37.50
84141;DHT22;74257;52.540;13.416;2024-01-30T07:50:05;22.50;37.50
84141;DHT22;74257;52.540;13.416;2024-01-30T07:52:31;22.50;37.50
84141;DHT22;74257;52.540;13.416;2024-01-30T07:54:57;22.50;37.50
84141;DHT22;74257;52.540;13.416;2024-01-30T07:57:23;22.50;37.50
84141;DHT22;74257;52.540;13.416;2024-01-30T07:59:49;22.50;37.50
84141;DHT22;74257;52.540;13.416;2024-01-30T08:02:15;22.50;37.50
84141;DHT22;74257;52.540;13.416;2024-01-30T08:04:41;22.50;37.50
84141;DHT22;74257;52.540;13.416;2024-01-30T08:07:07;22.50;37.50
84141;DHT22;74257;52.540;13.416;2024-01-30T08:09:32;22.50;37.50
84141;DHT22;74257;52.540;13.416;2024-01-30T08:11:58;22.50;37.50
84141;DHT22;74257;52.540;13.416;2024-01-30T08:14:24;22.50;37.50
84141;DHT22;74257;52.540;13.416;2024-01-30T08:16:51;22.50;37.50
84141;DHT22;74257;52.540;13.416;2024-01-30T08:19:17;22.50;37.50
84141;DHT22;74257;52.540;13.416;2024-01-30T08:21:43;22.50;37.60
84141;DHT22;74257;52.540;13.416;2024-01-30T08:24:09;22.50;37.60
84141;DHT22;74257;52.540;13.416;2024-01-30T08:26:35;22.50;37.60
84141;DHT22;74257;52.540;13.416;2024-01-30T08:29:01;22.60;37.70
84141;DHT22;74257;52.540;13.416;2024-01-30T08:31:27;22.60;37.60
84141;DHT22;74257;52.540;13.416;2024-01-30T08:33:53;22.60;37.60
84141;DHT22;74257;52.540;13.416;2024-01-30T08:36:20;22.60;37.60
84141;DHT22;74257;52.540;13.416;2024-01-30T08:38:45;22.60;37.80
84141;DHT22;74257;52.540;13.416;2024-01-30T08:41:11;22.60;37.90
84141;DHT22;74257;52.540;13.416;2024-01-30T08:43:37;22.60;38.00
84141;DHT22;74257;52.540;13.416;2024-01-30T08:46:03;22.60;38.00
84141;DHT22;74257;52.540;13.416;2024-01-30T08:48:29;22.60;38.00
84141;DHT22;74257;52.540;13.416;2024-01-30T08:50:55;22.60;38.10
84141;DHT22;74257;52.540;13.416;2024-01-30T08:53:21;22.60;38.20
84141;DHT22;74257;52.540;13.416;2024-01-30T08:55:47;22.60;38.40
84141;DHT22;74257;52.540;13.416;2024-01-30T08:58:12;22.60;38.50
84141;DHT22;74257;52.540;13.416;2024-01-30T09:00:38;22.70;38.60
84141;DHT22;74257;52.540;13.416;2024-01-30T09:03:04;22.70;38.70
84141;DHT22;74257;52.540;13.416;2024-01-30T09:05:31;22.70;38.80
84141;DHT22;74257;52.540;13.416;2024-01-30T09:07:56;22.70;38.90
84141;DHT22;74257;52.540;13.416;2024-01-30T09:10:22;22.70;38.90
84141;DHT22;74257;52.540;13.416;2024-01-30T09:12:48;22.70;39.00
84141;DHT22;74257;52.540;13.416;2024-01-30T09:15:15;22.70;39.10
84141;DHT22;74257;52.540;13.416;2024-01-30T09:17:40;22.70;39.20
84141;DHT22;74257;52.540;13.416;2024-01-30T09:20:07;22.70;39.20
84141;DHT22;74257;52.540;13.416;2024-01-30T09:22:33;22.70;39.20
84141;DHT22;74257;52.540;13.416;2024-01-30T09:24:59;22.70;39.30
84141;DHT22;74257;52.540;13.416;2024-01-30T09:27:25;22.70;39.30
84141;DHT22;74257;52.540;13.416;2024-01-30T09:29:51;22.70;39.30
84141;DHT22;74257;52.540;13.416;2024-01-30T09:32:16;22.70;39.40
84141;DHT22;74257;52.540;13.416;2024-01-30T09:34:43;22.80;39.50
84141;DHT22;74257;52.540;13.416;2024-01-30T09:37:09;22.80;39.90
84141;DHT22;74257;52.540;13.416;2024-01-30T09:39:35;22.80;40.20
84141;DHT22;74257;52.540;13.416;2024-01-30T09:42:07;22.80;40.40
84141;DHT22;74257;52.540;13.416;2024-01-30T09:44:38;22.80;40.40
84141;DHT22;74257;52.540;13.416;2024-01-30T09:47:04;22.80;40.20
84141;DHT22;74257;52.540;13.416;2024-01-30T09:49:32;22.80;40.20
84141;DHT22;74257;52.540;13.416;2024-01-30T09:51:58;22.80;40.10
84141;DHT22;74257;52.540;13.416;2024-01-30T09:54:24;22.80;40.00
84141;DHT22;74257;52.540;13.416;2024-01-30T09:56:50;22.80;40.10
84141;DHT22;74257;52.540;13.416;2024-01-30T09:59:16;22.90;40.10
84141;DHT22;74257;52.540;13.416;2024-01-30T10:01:42;22.90;40.10
84141;DHT22;74257;52.540;13.416;2024-01-30T10:04:09;22.90;40.00
84141;DHT22;74257;52.540;13.416;2024-01-30T10:06:37;22.90;39.90
84141;DHT22;74257;52.540;13.416;2024-01-30T10:09:03;22.90;39.80
84141;DHT22;74257;52.540;13.416;2024-01-30T10:11:28;22.90;39.80
84141;DHT22;74257;52.540;13.416;2024-01-30T10:13:54;22.90;39.70
84141;DHT22;74257;52.540;13.416;2024-01-30T10:16:20;22.90;39.80
84141;DHT22;74257;52.540;13.416;2024-01-30T10:18:46;22.90;39.70
84141;DHT22;74257;52.540;13.416;2024-01-30T10:21:13;22.90;39.70
84141;DHT22;74257;52.540;13.416;2024-01-30T10:23:39;22.90;39.70
84141;DHT22;74257;52.540;13.416;2024-01-30T10:26:04;22.90;39.70
84141;DHT22;74257;52.540;13.416;2024-01-30T10:28:30;22.90;39.70
84141;DHT22;74257;52.540;13.416;2024-01-30T10:31:00;22.90;39.70
84141;DHT22;74257;52.540;13.416;2024-01-30T10:33:30;22.90;39.70
84141;DHT22;74257;52.540;13.416;2024-01-30T10:36:02;22.90;39.70
84141;DHT22;74257;52.540;13.416;2024-01-30T10:38:31;22.90;39.60
84141;DHT22;74257;52.540;13.416;2024-01-30T10:40:58;22.90;39.60
84141;DHT22;74257;52.540;13.416;2024-01-30T10:43:35;22.90;39.60
84141;DHT22;74257;52.540;13.416;2024-01-30T10:46:11;22.90;39.60
84141;DHT22;74257;52.540;13.416;2024-01-30T10:48:43;23.00;39.60
84141;DHT22;74257;52.540;13.416;2024-01-30T10:51:11;23.00;39.50
84141;DHT22;74257;52.540;13.416;2024-01-30T10:53:39;22.90;39.60
84141;DHT22;74257;52.540;13.416;2024-01-30T10:56:05;23.00;39.50
84141;DHT22;74257;52.540;13.416;2024-01-30T10:58:31;23.00;39.50
84141;DHT22;74257;52.540;13.416;2024-01-30T11:00:56;23.00;39.60
84141;DHT22;74257;52.540;13.416;2024-01-30T11:03:24;23.00;39.60
84141;DHT22;74257;52.540;13.416;2024-01-30T11:05:50;23.00;39.50
84141;DHT22;74257;52.540;13.416;2024-01-30T11:08:24;23.00;39.60
84141;DHT22;74257;52.540;13.416;2024-01-30T11:10:55;23.00;39.50
84141;DHT22;74257;52.540;13.416;2024-01-30T11:13:21;23.00;39.50
84141;DHT22;74257;52.540;13.416;2024-01-30T11:15:48;23.00;39.60
84141;DHT22;74257;52.540;13.416;2024-01-30T11:18:25;23.00;39.60
84141;DHT22;74257;52.540;13.416;2024-01-30T11:20:51;23.00;39.60
84141;DHT22;74257;52.540;13.416;2024-01-30T11:23:18;23.00;39.50
84141;DHT22;74257;52.540;13.416;2024-01-30T11:25:43;23.00;39.60
84141;DHT22;74257;52.540;13.416;2024-01-30T11:28:15;23.00;39.60
84141;DHT22;74257;52.540;13.416;2024-01-30T11:30:42;23.00;39.60
84141;DHT22;74257;52.540;13.416;2024-01-30T11:33:13;23.00;39.60
84141;DHT22;74257;52.540;13.416;2024-01-30T11:35:44;23.00;39.60
84141;DHT22;74257;52.540;13.416;2024-01-30T11:38:14;23.00;39.50
84141;DHT22;74257;52.540;13.416;2024-01-30T11:40:40;23.00;39.60
84141;DHT22;74257;52.540;13.416;2024-01-30T11:43:07;23.00;39.60
84141;DHT22;74257;52.540;13.416;2024-01-30T11:45:34;23.00;39.80
84141;DHT22;74257;52.540;13.416;2024-01-30T11:48:01;23.00;40.00
84141;DHT22;74257;52.540;13.416;2024-01-30T11:50:33;23.00;40.00
84141;DHT22;74257;52.540;13.416;2024-01-30T11:52:59;23.10;39.90
84141;DHT22;74257;52.540;13.416;2024-01-30T11:55:25;23.10;39.80
84141;DHT22;74257;52.540;13.416;2024-01-30T11:57:55;23.10;39.80
84141;DHT22;74257;52.540;13.416;2024-01-30T12:00:21;23.10;39.90
84141;DHT22;74257;52.540;13.416;2024-01-30T12:02:54;23.10;39.90
84141;DHT22;74257;52.540;13.416;2024-01-30T12:05:24;23.20;39.90
84141;DHT22;74257;52.540;13.416;2024-01-30T12:07:50;23.20;40.00
84141;DHT22;74257;52.540;13.416;2024-01-30T12:10:16;23.30;39.90
84141;DHT22;74257;52.540;13.416;2024-01-30T12:12:47;23.30;39.90
84141;DHT22;74257;52.540;13.416;2024-01-30T12:15:13;23.40;39.90
84141;DHT22;74257;52.540;13.416;2024-01-30T12:17:40;23.40;39.80
84141;DHT22;74257;52.540;13.416;2024-01-30T12:20:13;23.50;39.80
84141;DHT22;74257;52.540;13.416;2024-01-30T12:22:41;23.60;39.80
84141;DHT22;74257;52.540;13.416;2024-01-30T12:25:10;23.60;39.70
84141;DHT22;74257;52.540;13.416;2024-01-30T12:27:37;23.60;39.70
84141;DHT22;74257;52.540;13.416;2024-01-30T12:30:07;23.70;39.60
84141;DHT22;74257;52.540;13.416;2024-01-30T12:32:39;23.80;39.50
84141;DHT22;74257;52.540;13.416;2024-01-30T12:35:08;23.80;39.50
84141;DHT22;74257;52.540;13.416;2024-01-30T12:37:35;23.90;39.50
84141;DHT22;74257;52.540;13.416;2024-01-30T12:40:01;23.90;39.50
84141;DHT22;74257;52.540;13.416;2024-01-30T12:42:28;24.00;39.40
84141;DHT22;74257;52.540;13.416;2024-01-30T12:44:53;24.00;39.30
84141;DHT22;74257;52.540;13.416;2024-01-30T12:47:22;24.00;39.30
84141;DHT22;74257;52.540;13.416;2024-01-30T12:49:48;24.00;39.20
84141;DHT22;74257;52.540;13.416;2024-01-30T12:52:16;24.00;39.10
84141;DHT22;74257;52.540;13.416;2024-01-30T12:54:41;24.10;39.00
84141;DHT22;74257;52.540;13.416;2024-01-30T12:57:07;24.10;39.00
84141;DHT22;74257;52.540;13.416;2024-01-30T12:59:33;24.20;39.00
84141;DHT22;74257;52.540;13.416;2024-01-30T13:02:00;24.20;39.00
84141;DHT22;74257;52.540;13.416;2024-01-30T13:04:27;24.20;39.00
84141;DHT22;74257;52.540;13.416;2024-01-30T13:06:53;24.20;39.00
84141;DHT22;74257;52.540;13.416;2024-01-30T13:09:19;24.20;38.90
84141;DHT22;74257;52.540;13.416;2024-01-30T13:11:46;24.20;38.90
84141;DHT22;74257;52.540;13.416;2024-01-30T13:14:11;24.20;38.90
84141;DHT22;74257;52.540;13.416;2024-01-30T13:16:38;24.30;38.80
84141;DHT22;74257;52.540;13.416;2024-01-30T13:19:03;24.30;38.80
84141;DHT22;74257;52.540;13.416;2024-01-30T13:21:29;24.30;38.80
84141;DHT22;74257;52.540;13.416;2024-01-30T13:23:55;24.40;38.80
84141;DHT22;74257;52.540;13.416;2024-01-30T13:26:21;24.40;38.70
84141;DHT22;74257;52.540;13.416;2024-01-30T13:28:47;24.40;38.70
84141;DHT22;74257;52.540;13.416;2024-01-30T13:31:16;24.40;38.70
84141;DHT22;74257;52.540;13.416;2024-01-30T13:33:42;24.40;38.60
84141;DHT22;74257;52.540;13.416;2024-01-30T13:36:10;24.40;38.60
84141;DHT22;74257;52.540;13.416;2024-01-30T13:38:37;24.40;38.60
84141;DHT22;74257;52.540;13.416;2024-01-30T13:41:03;24.40;38.60
84141;DHT22;74257;52.540;13.416;2024-01-30T13:43:29;24.40;38.50
84141;DHT22;74257;52.540;13.416;2024-01-30T13:45:55;24.40;38.50
84141;DHT22;74257;52.540;13.416;2024-01-30T13:48:21;24.40;38.50
84141;DHT22;74257;52.540;13.416;2024-01-30T13:50:48;24.40;38.50
84141;DHT22;74257;52.540;13.416;2024-01-30T13:53:13;24.40;38.40
84141;DHT22;74257;52.540;13.416;2024-01-30T13:55:39;24.40;38.40
84141;DHT22;74257;52.540;13.416;2024-01-30T13:58:08;24.40;38.40
84141;DHT22;74257;52.540;13.416;2024-01-30T14:00:34;24.40;38.40
84141;DHT22;74257;52.540;13.416;2024-01-30T14:03:00;24.40;38.30
84141;DHT22;74257;52.540;13.416;2024-01-30T14:05:27;24.40;38.30
84141;DHT22;74257;52.540;13.416;2024-01-30T14:07:56;24.50;38.30
84141;DHT22;74257;52.540;13.416;2024-01-30T14:10:22;24.40;38.30
84141;DHT22;74257;52.540;13.416;2024-01-30T14:12:48;24.50;38.30
84141;DHT22;74257;52.540;13.416;2024-01-30T14:15:14;24.50;38.30
84141;DHT22;74257;52.540;13.416;2024-01-30T14:17:40;24.50;38.20
84141;DHT22;74257;52.540;13.416;2024-01-30T14:20:07;24.50;38.30
84141;DHT22;74257;52.540;13.416;2024-01-30T14:22:33;24.50;38.20
84141;DHT22;74257;52.540;13.416;2024-01-30T14:25:00;24.50;38.20
84141;DHT22;74257;52.540;13.416;2024-01-30T14:27:27;24.50;38.20
84141;DHT22;74257;52.540;13.416;2024-01-30T14:29:53;24.50;38.20
84141;DHT22;74257;52.540;13.416;2024-01-30T14:32:19;24.50;38.10
84141;DHT22;74257;52.540;13.416;2024-01-30T14:34:45;24.50;38.10
84141;DHT22;74257;52.540;13.416;2024-01-30T14:37:10;24.50;38.10
84141;DHT22;74257;52.540;13.416;2024-01-30T14:39:36;24.50;38.10
84141;DHT22;74257;52.540;13.416;2024-01-30T14:42:03;24.50;38.00
84141;DHT22;74257;52.540;13.416;2024-01-30T14:44:29;24.50;38.00
84141;DHT22;74257;52.540;13.416;2024-01-30T14:46:56;24.50;38.00
84141;DHT22;74257;52.540;13.416;2024-01-30T14:49:22;24.50;38.00
84141;DHT22;74257;52.540;13.416;2024-01-30T14:51:48;24.50;38.00
84141;DHT22;74257;52.540;13.416;2024-01-30T14:54:13;24.50;38.00
84141;DHT22;74257;52.540;13.416;2024-01-30T14:56:39;24.50;37.90
84141;DHT22;74257;52.540;13.416;2024-01-30T14:59:06;24.50;37.90
84141;DHT22;74257;52.540;13.416;2024-01-30T15:01:31;24.50;37.80
84141;DHT22;74257;52.540;13.416;2024-01-30T15:03:57;24.50;37.70
84141;DHT22;74257;52.540;13.416;2024-01-30T15:06:23;24.50;37.70
84141;DHT22;74257;52.540;13.416;2024-01-30T15:08:51;24.50;37.70
84141;DHT22;74257;52.540;13.416;2024-01-30T15:11:17;24.50;37.70